Airfield :
LOGIN :

Register | Disclaimer

   EN    FR    IT 

 










Legend :    VFR   Marginal VFR   IFR   Intensive IFR   Very Intensive IFR
Visi :
Ceiling :
>= 8 km
>= 3000ft
5 to 8 km
1000 to 3000 ft
1500m to 5 km
500 to 1000 ft
800 to 1500m
200 to 500 ft
< 800m
< 200 ft
Symbols :   Thunderstorms  Fog  Heavy snow  Heavy precipitations  Wind > 20 kt
SIGMETs :     Misc.  Thunderstorms  Icing  Turbulence  Mountain Waves  Volcanic Ashes






- Airport Elevation : 44 ft
- IATA code : SOU


EGHI - Southampton

CURRENT METAR :
  • 181950Z 25006KT 220V280 9999 SCT020 12/09 Q1015

EXPIRED METARs :
  • 181920Z 23007KT 200V260 9999 SCT020 12/10 Q1015
  • 181850Z 23010KT 200V260 9999 SCT030 13/10 Q1015
  • 181820Z 23010G24KT 190V270 9999 SCT015 13/10 Q1015
  • 181750Z 23006KT 200V260 9999 FEW015 SCT017 13/10 Q1015

TAF TAF EGHI
Valid from the 18 at 18:00 until the 18 at 22:00 UTC


181701Z 1818/1822 23008KT 9999 SCT020
PROB30
TEMPO 1818/1821 6000 SHRA
TEMPO 1821/1822 6000 SHRA
ATIS : +44 23 8062 7103



MET'MAP, your aeronautical weather chart ! - Copyright ORBIFLY December 2007 - Disclaimer

ORBIFLY MET'MAP TEAM :

Programming & Development : Alexandra Zaïnal
Concept & original design : Baudouin d'Aumeries
Assistance for programming : Marc-Olivier Méhu
Technical & hardware support : Manuel Goepfert

Contact : metmap@orbifly.com




SOURCES & CREDITS :

   NOAA